Time;durP1;ratioP1;P1;durP2;ratioP2;P2;SDS_P1;SDS_P2;PMS_P1;PMS_P2;Temp;Humidity;BMP_temperature;BMP_pressure;BME280_temperature;BME280_humidity;BME280_pressure;Samples;Min_cycle;Max_cycle;Signal;HPM_P1;HPM_P2
2020/12/17 00:00:12;;;;;;;1.08;0.88;;;23.50;38.60;;;;;;5032228;28;20043;-52
2020/12/17 00:02:38;;;;;;;1.27;1.00;;;23.50;38.60;;;;;;5033062;28;20100;-54
2020/12/17 00:05:05;;;;;;;1.30;0.90;;;23.50;38.60;;;;;;5035177;28;20037;-47
2020/12/17 00:07:32;;;;;;;1.52;1.00;;;23.50;38.60;;;;;;5033234;28;20025;-51
2020/12/17 00:09:58;;;;;;;1.48;1.00;;;23.50;38.60;;;;;;5003402;28;20037;-50
2020/12/17 00:12:25;;;;;;;1.42;0.95;;;23.50;38.70;;;;;;5013625;28;20041;-52
2020/12/17 00:14:52;;;;;;;1.50;1.00;;;23.50;38.70;;;;;;5035128;28;20037;-51
2020/12/17 00:17:18;;;;;;;1.85;0.93;;;23.50;38.70;;;;;;5032278;28;20040;-49
2020/12/17 00:19:45;;;;;;;1.20;1.00;;;23.40;38.60;;;;;;5017094;28;20025;-51
2020/12/17 00:22:12;;;;;;;1.10;0.90;;;23.50;38.70;;;;;;5034370;28;20064;-55
2020/12/17 00:24:39;;;;;;;1.73;0.90;;;23.40;38.70;;;;;;5016829;28;20452;-52
2020/12/17 00:27:06;;;;;;;1.73;0.98;;;23.40;38.70;;;;;;5014408;28;20339;-51
2020/12/17 00:29:33;;;;;;;1.30;1.00;;;23.40;38.70;;;;;;5034424;28;20063;-48
2020/12/17 00:32:00;;;;;;;1.60;0.90;;;23.40;38.70;;;;;;5032928;28;20052;-48
2020/12/17 00:34:27;;;;;;;1.70;1.10;;;23.40;38.70;;;;;;5033782;28;20052;-51
2020/12/17 00:36:54;;;;;;;1.20;1.05;;;23.40;38.80;;;;;;5032240;28;20067;-49
2020/12/17 00:39:23;;;;;;;1.35;1.08;;;23.40;38.80;;;;;;5034092;28;20063;-52
2020/12/17 00:41:50;;;;;;;1.90;0.98;;;23.40;38.80;;;;;;5033316;28;20060;-51
2020/12/17 00:44:16;;;;;;;0.93;0.70;;;23.40;38.80;;;;;;5033485;28;20021;-48
2020/12/17 00:46:43;;;;;;;1.75;1.02;;;23.40;38.80;;;;;;5029441;28;20044;-50
2020/12/17 00:49:09;;;;;;;1.45;1.13;;;23.30;38.80;;;;;;5032496;28;20516;-52
2020/12/17 00:51:36;;;;;;;1.20;1.02;;;23.40;38.80;;;;;;5034129;28;20025;-48
2020/12/17 00:54:02;;;;;;;1.63;1.13;;;23.30;38.80;;;;;;5031203;28;20041;-47
2020/12/17 00:56:29;;;;;;;1.30;0.93;;;23.30;38.80;;;;;;5032534;28;20067;-56
2020/12/17 00:58:56;;;;;;;2.28;1.20;;;23.30;38.80;;;;;;5031328;28;20029;-52
2020/12/17 01:01:22;;;;;;;1.33;0.90;;;23.30;38.80;;;;;;5007050;28;20192;-54
2020/12/17 01:03:49;;;;;;;1.38;1.05;;;23.30;38.80;;;;;;5014081;28;20124;-51
2020/12/17 01:06:16;;;;;;;1.70;1.10;;;23.30;38.80;;;;;;5013502;28;20114;-50
2020/12/17 01:08:42;;;;;;;1.58;0.98;;;23.30;38.80;;;;;;5012072;28;20030;-51
2020/12/17 01:11:09;;;;;;;1.35;1.00;;;23.30;38.80;;;;;;5014079;28;20033;-49
2020/12/17 01:13:35;;;;;;;1.25;0.85;;;23.20;38.80;;;;;;4997506;28;20045;-51
2020/12/17 01:16:02;;;;;;;1.05;0.80;;;23.20;38.80;;;;;;5009559;28;20021;-48
2020/12/17 01:18:29;;;;;;;1.13;0.90;;;23.20;38.80;;;;;;5016414;28;20108;-52
2020/12/17 01:20:56;;;;;;;1.10;0.90;;;23.20;38.80;;;;;;4993368;28;20361;-50
2020/12/17 01:23:22;;;;;;;1.15;0.85;;;23.20;39.50;;;;;;5013666;28;20392;-53
2020/12/17 01:25:49;;;;;;;1.00;0.82;;;23.20;38.90;;;;;;5010857;28;20456;-51
2020/12/17 01:28:16;;;;;;;1.50;1.10;;;23.20;38.90;;;;;;5011493;28;20029;-50
2020/12/17 01:30:42;;;;;;;1.73;0.80;;;23.20;38.90;;;;;;5011316;28;20103;-51
2020/12/17 01:33:09;;;;;;;1.48;1.25;;;23.20;38.90;;;;;;5013359;28;20037;-50
2020/12/17 01:35:35;;;;;;;1.38;1.08;;;23.20;38.80;;;;;;4991315;28;20038;-52
2020/12/17 01:38:02;;;;;;;1.23;1.00;;;23.20;38.90;;;;;;5012903;28;20022;-52
2020/12/17 01:40:28;;;;;;;1.33;0.90;;;23.20;38.90;;;;;;5013572;28;20034;-53
2020/12/17 01:42:54;;;;;;;1.23;0.80;;;23.20;38.90;;;;;;4994340;28;20084;-53
2020/12/17 01:45:21;;;;;;;1.23;1.05;;;23.10;38.80;;;;;;4989807;28;20040;-51
2020/12/17 01:47:48;;;;;;;1.33;0.93;;;23.10;38.80;;;;;;5009788;28;20453;-56
2020/12/17 01:50:15;;;;;;;0.90;0.80;;;23.10;38.90;;;;;;5011476;28;20395;-54
2020/12/17 01:52:42;;;;;;;1.25;0.80;;;23.10;39.50;;;;;;5012156;28;20045;-51
2020/12/17 01:55:08;;;;;;;1.73;0.82;;;23.10;38.90;;;;;;5012643;28;20029;-55
2020/12/17 01:57:41;;;;;;;1.27;0.80;;;23.10;39.50;;;;;;5011476;28;20064;-51
2020/12/17 02:00:08;;;;;;;1.35;1.00;;;23.10;38.80;;;;;;5013032;28;20349;-51
2020/12/17 02:02:36;;;;;;;1.08;0.98;;;23.10;39.50;;;;;;5025711;28;20050;-52
2020/12/17 02:05:05;;;;;;;1.00;0.90;;;23.10;38.90;;;;;;5014395;28;20433;-51
2020/12/17 02:07:31;;;;;;;1.63;0.98;;;23.10;38.90;;;;;;5030476;28;20025;-52
2020/12/17 02:09:59;;;;;;;2.03;0.80;;;23.10;38.90;;;;;;5034054;28;20024;-48
2020/12/17 02:12:42;;;;;;;1.00;0.70;;;23.10;38.80;;;;;;5032198;28;20102;-52
2020/12/17 02:15:10;;;;;;;1.60;1.00;;;23.10;38.80;;;;;;5030037;28;20091;-52
2020/12/17 02:17:37;;;;;;;1.70;1.00;;;23.10;38.90;;;;;;5043048;28;20325;-54
2020/12/17 02:20:08;;;;;;;1.48;1.00;;;23.10;38.90;;;;;;5030861;28;20022;-51
2020/12/17 02:22:35;;;;;;;1.80;1.00;;;23.10;39.00;;;;;;5031711;28;20029;-50
2020/12/17 02:25:05;;;;;;;1.20;0.90;;;23.00;39.00;;;;;;5031269;28;20342;-50
2020/12/17 02:27:32;;;;;;;1.23;0.90;;;23.00;39.00;;;;;;5031124;28;20057;-56
2020/12/17 02:29:59;;;;;;;0.90;0.80;;;23.00;39.00;;;;;;5031913;28;20029;-50
2020/12/17 02:32:25;;;;;;;1.38;0.93;;;23.00;39.00;;;;;;5032591;28;20053;-54
2020/12/17 02:34:52;;;;;;;1.40;1.00;;;23.00;39.00;;;;;;5014296;28;20022;-53
2020/12/17 02:37:18;;;;;;;2.35;1.00;;;23.00;39.00;;;;;;5033043;28;20018;-51
2020/12/17 02:39:45;;;;;;;0.98;0.85;;;23.00;39.00;;;;;;5036339;28;20064;-50
2020/12/17 02:42:11;;;;;;;1.00;0.90;;;23.00;39.70;;;;;;5036513;28;20053;-47
2020/12/17 02:44:38;;;;;;;1.10;1.00;;;23.00;39.70;;;;;;5036415;28;20123;-51
2020/12/17 02:47:04;;;;;;;1.35;0.90;;;23.00;39.00;;;;;;5030651;28;20105;-51
2020/12/17 02:49:31;;;;;;;1.38;0.80;;;23.00;39.00;;;;;;5035131;28;20072;-53
2020/12/17 02:51:58;;;;;;;0.93;0.80;;;23.00;39.00;;;;;;5033007;28;20029;-48
2020/12/17 02:54:24;;;;;;;1.00;0.80;;;23.00;39.00;;;;;;5033315;28;20084;-55
2020/12/17 02:56:51;;;;;;;1.70;1.05;;;23.00;39.00;;;;;;5018168;28;20037;-47
2020/12/17 02:59:17;;;;;;;0.88;0.77;;;23.00;39.00;;;;;;5034225;28;20044;-50
2020/12/17 03:01:43;;;;;;;0.60;0.60;;;23.00;39.00;;;;;;5034718;28;20057;-52
2020/12/17 03:04:10;;;;;;;1.25;0.90;;;23.00;39.00;;;;;;5035189;28;20091;-50
2020/12/17 03:06:37;;;;;;;1.42;0.80;;;23.00;39.00;;;;;;5035071;28;20043;-52
2020/12/17 03:09:06;;;;;;;2.45;1.00;;;23.00;39.00;;;;;;5018153;28;20029;-47
2020/12/17 03:11:33;;;;;;;1.65;1.00;;;22.90;39.00;;;;;;5033927;28;20021;-48
2020/12/17 03:14:00;;;;;;;2.28;0.90;;;23.00;39.00;;;;;;5035006;28;20037;-46
2020/12/17 03:16:27;;;;;;;1.73;1.05;;;22.90;39.00;;;;;;5035869;28;20035;-50
2020/12/17 03:18:56;;;;;;;0.93;0.82;;;22.90;39.00;;;;;;5040095;28;20115;-48
2020/12/17 03:21:23;;;;;;;1.23;1.00;;;22.90;39.00;;;;;;5038701;28;20088;-51
2020/12/17 03:23:50;;;;;;;1.27;0.82;;;22.90;39.00;;;;;;5031076;28;20487;-50
2020/12/17 03:26:17;;;;;;;1.95;1.00;;;22.90;39.00;;;;;;5017171;28;20394;-51
2020/12/17 03:28:43;;;;;;;1.67;0.68;;;22.90;39.10;;;;;;5034584;28;20029;-51
2020/12/17 03:31:10;;;;;;;1.50;0.88;;;22.90;39.00;;;;;;5017903;28;20349;-49
2020/12/17 03:33:37;;;;;;;2.65;1.00;;;22.90;39.00;;;;;;5034792;28;20037;-51
2020/12/17 03:36:04;;;;;;;1.60;0.82;;;22.90;39.10;;;;;;5035543;28;20029;-54
2020/12/17 03:38:31;;;;;;;1.23;0.90;;;22.90;39.00;;;;;;5033577;28;20048;-52
2020/12/17 03:40:57;;;;;;;1.17;0.70;;;22.90;39.10;;;;;;5034919;28;20037;-48
2020/12/17 03:43:23;;;;;;;1.58;0.80;;;22.90;39.10;;;;;;5034249;28;20032;-51
2020/12/17 03:45:50;;;;;;;1.33;0.90;;;22.90;39.10;;;;;;5035391;28;20449;-52
2020/12/17 03:48:17;;;;;;;0.90;0.80;;;22.90;39.10;;;;;;5031455;28;20109;-49
2020/12/17 03:50:44;;;;;;;1.30;1.05;;;22.90;39.10;;;;;;5034765;28;20025;-48
2020/12/17 03:53:10;;;;;;;0.85;0.70;;;22.90;39.10;;;;;;5015584;28;20045;-48
2020/12/17 03:55:36;;;;;;;1.02;0.80;;;22.90;39.70;;;;;;5035003;28;20121;-51
2020/12/17 03:58:03;;;;;;;0.80;0.70;;;22.80;39.00;;;;;;5034552;28;20108;-50
2020/12/17 04:00:29;;;;;;;1.30;0.60;;;22.80;39.00;;;;;;5034674;28;20025;-51
2020/12/17 04:02:55;;;;;;;0.90;0.80;;;22.80;39.00;;;;;;5015579;28;20049;-51
2020/12/17 04:05:21;;;;;;;1.45;0.70;;;22.80;39.00;;;;;;5033338;28;20033;-51
2020/12/17 04:07:48;;;;;;;1.20;0.70;;;22.80;39.00;;;;;;5030204;28;20373;-48
2020/12/17 04:10:14;;;;;;;1.00;0.80;;;22.80;39.10;;;;;;5035336;28;20029;-52
2020/12/17 04:12:41;;;;;;;1.50;1.00;;;22.80;39.00;;;;;;5033231;28;20072;-49
2020/12/17 04:15:08;;;;;;;0.85;0.70;;;22.80;39.10;;;;;;5034004;28;20064;-51
2020/12/17 04:17:35;;;;;;;1.02;0.75;;;22.80;39.10;;;;;;5033959;28;20025;-49
2020/12/17 04:20:01;;;;;;;0.93;0.75;;;22.80;39.10;;;;;;5032228;28;20037;-49
2020/12/17 04:22:28;;;;;;;0.85;0.70;;;22.80;39.10;;;;;;5040716;28;20025;-50
2020/12/17 04:24:54;;;;;;;1.50;0.88;;;22.80;39.10;;;;;;5016145;28;20037;-52
2020/12/17 04:27:20;;;;;;;2.08;0.75;;;22.80;39.10;;;;;;5014007;28;20033;-53
2020/12/17 04:29:47;;;;;;;0.93;0.80;;;22.80;39.10;;;;;;5031044;28;20025;-48
2020/12/17 04:32:13;;;;;;;0.98;0.70;;;22.80;39.10;;;;;;5035376;28;20437;-53
2020/12/17 04:34:40;;;;;;;1.65;0.90;;;22.80;39.20;;;;;;5034239;28;20055;-51
2020/12/17 04:37:07;;;;;;;0.75;0.70;;;22.70;39.10;;;;;;5031901;28;20022;-48
2020/12/17 04:39:33;;;;;;;0.98;0.70;;;22.70;39.10;;;;;;5020815;28;20095;-50
2020/12/17 04:42:01;;;;;;;1.42;0.80;;;22.70;39.10;;;;;;5032520;28;20052;-51
2020/12/17 04:44:28;;;;;;;1.00;0.88;;;22.70;39.20;;;;;;5034622;28;20040;-53
2020/12/17 04:46:59;;;;;;;0.82;0.70;;;22.70;39.20;;;;;;5033189;28;20037;-50
2020/12/17 04:49:37;;;;;;;1.00;0.70;;;22.70;39.20;;;;;;5010463;28;20044;-47
2020/12/17 04:52:06;;;;;;;1.50;0.70;;;22.70;39.20;;;;;;5035265;28;20033;-54
2020/12/17 04:54:32;;;;;;;1.77;0.95;;;22.70;39.20;;;;;;5027635;28;20037;-47
2020/12/17 04:57:07;;;;;;;1.27;0.88;;;22.70;39.30;;;;;;5027842;28;20053;-54
2020/12/17 04:59:52;;;;;;;1.52;0.88;;;22.70;39.30;;;;;;5033274;28;20060;-51
2020/12/17 05:02:22;;;;;;;0.98;0.85;;;22.70;39.30;;;;;;5021414;28;20046;-48
2020/12/17 05:04:50;;;;;;;0.85;0.80;;;22.70;39.30;;;;;;5015350;28;20040;-49
2020/12/17 05:07:19;;;;;;;1.13;0.70;;;22.60;39.30;;;;;;5031360;28;20030;-50
2020/12/17 05:09:46;;;;;;;1.13;0.80;;;22.60;39.30;;;;;;5035082;28;20080;-51
2020/12/17 05:12:13;;;;;;;1.17;0.80;;;22.60;40.00;;;;;;5034290;28;20041;-53
2020/12/17 05:14:40;;;;;;;1.17;0.80;;;22.60;39.40;;;;;;5034646;28;20106;-50
2020/12/17 05:17:07;;;;;;;0.93;0.82;;;22.60;39.40;;;;;;5032585;28;20108;-50
2020/12/17 05:19:35;;;;;;;1.30;0.80;;;22.60;39.40;;;;;;5033637;28;21065;-46
2020/12/17 05:22:02;;;;;;;1.60;0.90;;;22.60;39.40;;;;;;5032180;28;20037;-52
2020/12/17 05:24:29;;;;;;;0.80;0.70;;;22.60;39.40;;;;;;5035015;28;20029;-52
2020/12/17 05:26:57;;;;;;;0.98;0.70;;;22.60;39.40;;;;;;5039904;28;20036;-48
2020/12/17 05:29:24;;;;;;;1.33;0.93;;;22.60;39.40;;;;;;5049897;28;20026;-50
2020/12/17 05:31:51;;;;;;;1.25;0.77;;;22.60;39.50;;;;;;5031725;28;20036;-48
2020/12/17 05:34:18;;;;;;;1.27;0.80;;;22.60;39.50;;;;;;5034614;28;20041;-53
2020/12/17 05:36:46;;;;;;;1.33;0.75;;;22.60;39.50;;;;;;5015429;28;20025;-48
2020/12/17 05:39:15;;;;;;;1.73;1.00;;;22.60;39.50;;;;;;5033552;28;20033;-53
2020/12/17 05:41:43;;;;;;;0.80;0.80;;;22.60;39.50;;;;;;5031299;28;20037;-49
2020/12/17 05:44:17;;;;;;;1.20;0.70;;;22.60;39.50;;;;;;5032143;28;20025;-52
2020/12/17 05:46:45;;;;;;;1.40;0.88;;;22.50;39.50;;;;;;5026450;28;20387;-50
2020/12/17 05:49:12;;;;;;;1.00;0.73;;;22.60;39.50;;;;;;5034360;28;20507;-52
2020/12/17 05:51:39;;;;;;;1.30;0.65;;;22.60;39.60;;;;;;5011149;28;20478;-48
2020/12/17 05:54:11;;;;;;;0.93;0.60;;;22.60;39.60;;;;;;5034588;28;20500;-49
2020/12/17 05:56:38;;;;;;;1.60;0.70;;;22.50;39.50;;;;;;5034048;28;20120;-53
2020/12/17 05:59:05;;;;;;;1.15;0.90;;;22.50;39.60;;;;;;5034985;28;20037;-54
2020/12/17 06:01:33;;;;;;;1.00;0.90;;;22.50;39.60;;;;;;5026507;28;20033;-55
2020/12/17 06:04:14;;;;;;;2.72;0.90;;;22.50;39.60;;;;;;5033808;28;20109;-53
2020/12/17 06:06:45;;;;;;;0.70;0.70;;;22.50;39.60;;;;;;5033957;28;20037;-54
2020/12/17 06:09:23;;;;;;;1.08;0.90;;;22.50;39.70;;;;;;5026691;28;20034;-54
2020/12/17 06:11:52;;;;;;;0.85;0.68;;;22.50;39.70;;;;;;5033168;28;20029;-50
2020/12/17 06:14:21;;;;;;;0.90;0.70;;;22.50;39.70;;;;;;5033898;28;20095;-54
2020/12/17 06:16:58;;;;;;;1.00;0.70;;;22.50;39.70;;;;;;5024781;28;20030;-56
2020/12/17 06:19:24;;;;;;;1.13;0.73;;;22.50;39.70;;;;;;5034471;28;20039;-54
2020/12/17 06:21:51;;;;;;;1.40;0.70;;;22.50;39.70;;;;;;5025658;28;20029;-52
2020/12/17 06:24:20;;;;;;;0.98;0.57;;;22.50;40.30;;;;;;5033920;28;20036;-55
2020/12/17 06:26:52;;;;;;;1.02;0.70;;;22.50;39.70;;;;;;5002528;28;20117;-52
2020/12/17 06:29:23;;;;;;;1.02;0.60;;;22.50;39.70;;;;;;5015947;28;20041;-55
2020/12/17 06:31:56;;;;;;;1.23;0.60;;;22.50;39.70;;;;;;5038552;28;20116;-55
2020/12/17 06:34:36;;;;;;;1.10;0.70;;;22.50;39.80;;;;;;5031400;28;20107;-52
2020/12/17 06:37:05;;;;;;;1.27;0.57;;;22.50;40.00;;;;;;5031057;28;20017;-52
2020/12/17 06:39:32;;;;;;;1.10;0.85;;;22.40;39.90;;;;;;5030512;28;20037;-51
2020/12/17 06:41:59;;;;;;;0.50;0.50;;;22.50;40.00;;;;;;5033792;28;20034;-50
2020/12/17 06:44:32;;;;;;;1.15;0.60;;;22.50;39.90;;;;;;5032997;28;20034;-52
2020/12/17 06:47:00;;;;;;;1.50;0.70;;;22.40;39.90;;;;;;5030957;28;20072;-50
2020/12/17 06:49:31;;;;;;;0.65;0.57;;;22.40;39.90;;;;;;5016316;28;20033;-52
2020/12/17 06:52:05;;;;;;;1.83;0.88;;;22.40;39.90;;;;;;5025263;28;20029;-48
2020/12/17 06:54:32;;;;;;;0.55;0.43;;;22.40;39.80;;;;;;5028104;28;20048;-51
2020/12/17 06:57:10;;;;;;;1.55;0.70;;;22.40;39.80;;;;;;5033821;28;20026;-53
2020/12/17 06:59:38;;;;;;;1.30;0.70;;;22.40;39.90;;;;;;5009197;28;20115;-51
2020/12/17 07:02:05;;;;;;;0.73;0.57;;;22.40;39.90;;;;;;5032863;28;20033;-49
2020/12/17 07:04:39;;;;;;;1.17;0.57;;;22.40;39.90;;;;;;5029730;28;20079;-48
2020/12/17 07:07:20;;;;;;;0.68;0.65;;;22.40;39.90;;;;;;5020357;28;20037;-47
2020/12/17 07:09:56;;;;;;;0.77;0.70;;;22.40;39.80;;;;;;5032483;28;20048;-47
2020/12/17 07:12:34;;;;;;;1.05;0.77;;;22.40;39.80;;;;;;5032989;28;20033;-55
2020/12/17 07:15:05;;;;;;;1.45;0.65;;;22.40;39.80;;;;;;5033506;28;20030;-49
2020/12/17 07:17:31;;;;;;;1.52;0.73;;;22.40;39.90;;;;;;5030016;28;20116;-50
2020/12/17 07:19:57;;;;;;;1.08;0.73;;;22.40;39.90;;;;;;5028122;28;20077;-50
2020/12/17 07:22:24;;;;;;;1.08;0.60;;;22.40;39.90;;;;;;5024343;28;20037;-51
2020/12/17 07:24:55;;;;;;;6.85;0.88;;;22.40;40.00;;;;;;5018025;28;20051;-46
2020/12/17 07:27:31;;;;;;;0.88;0.68;;;22.30;39.90;;;;;;5037056;28;20091;-50
2020/12/17 07:30:06;;;;;;;0.88;0.77;;;22.40;40.00;;;;;;5031815;28;20095;-49
2020/12/17 07:32:33;;;;;;;;;;;22.30;39.90;;;;;;5029632;28;20064;-47
2020/12/17 07:35:08;;;;;;;0.73;0.70;;;22.40;40.00;;;;;;5025774;28;19945;-51
2020/12/17 07:37:45;;;;;;;1.67;0.70;;;22.30;40.00;;;;;;5026882;28;20037;-51
2020/12/17 07:40:16;;;;;;;0.90;0.70;;;22.30;40.00;;;;;;5024511;28;20034;-51
2020/12/17 07:42:55;;;;;;;1.38;0.77;;;22.30;40.00;;;;;;5030474;28;20037;-49
2020/12/17 07:45:39;;;;;;;1.00;0.90;;;22.30;40.00;;;;;;5028974;28;20112;-49
2020/12/17 07:48:36;;;;;;;0.50;0.50;;;22.40;40.00;;;;;;5012248;28;20448;-48
2020/12/17 07:51:14;;;;;;;3.00;1.65;;;22.30;40.00;;;;;;5031758;28;20448;-50
2020/12/17 07:53:48;;;;;;;0.73;0.60;;;22.30;40.00;;;;;;5033370;28;20441;-53
2020/12/17 07:56:15;;;;;;;1.20;0.77;;;22.30;40.00;;;;;;5035287;28;20026;-51
2020/12/17 07:58:42;;;;;;;0.77;0.52;;;22.30;40.10;;;;;;5034487;28;20034;-48
2020/12/17 08:01:12;;;;;;;1.50;0.75;;;22.30;40.10;;;;;;5032516;28;20022;-52
2020/12/17 08:03:50;;;;;;;0.70;0.60;;;22.30;40.00;;;;;;5032757;28;20111;-58
2020/12/17 08:06:18;;;;;;;0.75;0.70;;;22.30;40.10;;;;;;5034584;28;20026;-57
2020/12/17 08:08:45;;;;;;;1.00;0.60;;;22.30;40.40;;;;;;5033640;28;20033;-56
2020/12/17 08:11:13;;;;;;;1.30;0.90;;;22.30;40.50;;;;;;5034760;28;20087;-54
2020/12/17 08:13:40;;;;;;;0.80;0.70;;;22.30;40.60;;;;;;5029096;28;20338;-50
2020/12/17 08:16:06;;;;;;;1.45;0.68;;;22.40;40.80;;;;;;5034215;28;20108;-56
2020/12/17 08:18:37;;;;;;;0.90;0.60;;;22.40;40.80;;;;;;5031718;28;20112;-52
2020/12/17 08:21:12;;;;;;;1.88;0.50;;;22.40;40.70;;;;;;5033987;28;20033;-57
2020/12/17 08:23:44;;;;;;;0.75;0.70;;;22.40;40.60;;;;;;5031700;28;20114;-52
2020/12/17 08:26:25;;;;;;;0.80;0.60;;;22.40;40.50;;;;;;5034805;28;20056;-51
2020/12/17 08:28:52;;;;;;;2.25;0.65;;;22.40;40.40;;;;;;5031135;28;20044;-52
2020/12/17 08:31:29;;;;;;;0.73;0.55;;;22.40;40.40;;;;;;5014128;28;20100;-51
2020/12/17 08:34:00;;;;;;;1.23;0.60;;;22.40;40.40;;;;;;5031445;28;20191;-51
2020/12/17 08:36:32;;;;;;;0.88;0.50;;;22.50;40.40;;;;;;5031243;28;20136;-52
2020/12/17 08:39:08;;;;;;;0.63;0.50;;;22.50;40.30;;;;;;5032695;28;20061;-55
2020/12/17 08:41:41;;;;;;;0.80;0.60;;;22.50;40.90;;;;;;5032427;28;20040;-61
2020/12/17 08:44:09;;;;;;;1.48;0.55;;;22.50;40.20;;;;;;5034565;28;20025;-51
2020/12/17 08:46:46;;;;;;;1.15;0.70;;;22.50;40.20;;;;;;5029581;28;20032;-53
2020/12/17 08:49:16;;;;;;;0.63;0.60;;;22.50;40.10;;;;;;5023540;28;20469;-49
2020/12/17 08:51:46;;;;;;;1.33;0.60;;;22.50;40.70;;;;;;5026043;28;20026;-54
2020/12/17 08:54:32;;;;;;;0.90;0.63;;;22.60;40.10;;;;;;5035327;28;20517;-49
2020/12/17 08:57:05;;;;;;;2.55;0.60;;;22.60;40.00;;;;;;5028986;28;20029;-49
2020/12/17 08:59:31;;;;;;;1.05;0.50;;;22.60;40.00;;;;;;5035651;28;20022;-48
2020/12/17 09:01:59;;;;;;;1.05;0.60;;;22.60;39.90;;;;;;5027681;28;20099;-54
2020/12/17 09:04:28;;;;;;;1.48;0.70;;;22.60;39.90;;;;;;5011092;28;20021;-49
2020/12/17 09:07:04;;;;;;;0.45;0.45;;;22.60;39.80;;;;;;5013200;28;20037;-49
2020/12/17 09:09:33;;;;;;;1.92;0.70;;;22.60;39.70;;;;;;5008603;28;20504;-51
2020/12/17 09:12:01;;;;;;;0.88;0.50;;;22.60;39.70;;;;;;4994948;28;20392;-53
2020/12/17 09:14:29;;;;;;;0.80;0.65;;;22.60;39.70;;;;;;5012061;28;20066;-52
2020/12/17 09:17:08;;;;;;;0.95;0.70;;;22.70;39.70;;;;;;5014133;28;20018;-52
2020/12/17 09:19:37;;;;;;;0.95;0.60;;;22.70;39.60;;;;;;5009411;28;20427;-50
2020/12/17 09:22:04;;;;;;;1.77;0.65;;;22.80;39.60;;;;;;5013160;28;20030;-52
2020/12/17 09:24:31;;;;;;;0.65;0.60;;;22.80;39.40;;;;;;5013960;28;20053;-50
2020/12/17 09:27:13;;;;;;;1.95;0.60;;;23.00;39.40;;;;;;5009601;28;20075;-49
2020/12/17 09:29:41;;;;;;;1.45;0.80;;;23.00;39.50;;;;;;5010684;28;20022;-52
2020/12/17 09:32:20;;;;;;;1.20;0.68;;;23.10;39.10;;;;;;5011952;28;20422;-53
2020/12/17 09:34:47;;;;;;;0.65;0.65;;;23.20;39.00;;;;;;5014526;28;20033;-53
2020/12/17 09:37:13;;;;;;;4.30;0.60;;;23.30;38.90;;;;;;5009213;28;20040;-47
2020/12/17 09:39:43;;;;;;;0.98;0.70;;;23.40;38.80;;;;;;5012253;28;20425;-52
2020/12/17 09:42:09;;;;;;;0.80;0.70;;;23.50;38.70;;;;;;5006945;28;20034;-49
2020/12/17 09:44:35;;;;;;;1.05;0.80;;;23.50;38.50;;;;;;5013366;28;20499;-54
2020/12/17 09:47:02;;;;;;;2.17;0.80;;;23.60;38.50;;;;;;5011402;28;20505;-50
2020/12/17 09:49:39;;;;;;;1.38;0.70;;;23.60;38.40;;;;;;5013224;28;20029;-52
2020/12/17 09:52:10;;;;;;;1.13;0.68;;;23.70;38.40;;;;;;5007918;28;20065;-52
2020/12/17 09:54:43;;;;;;;1.13;0.70;;;23.80;38.40;;;;;;5011222;28;20038;-52
2020/12/17 09:57:14;;;;;;;1.38;0.60;;;23.80;38.20;;;;;;5007372;28;20034;-51
2020/12/17 09:59:43;;;;;;;2.15;0.60;;;23.90;38.20;;;;;;5008785;28;20061;-51
2020/12/17 10:02:14;;;;;;;1.70;0.80;;;23.90;38.10;;;;;;5009104;28;20053;-57
2020/12/17 10:04:41;;;;;;;0.98;0.60;;;24.00;38.10;;;;;;5011096;28;20026;-54
2020/12/17 10:07:10;;;;;;;1.98;0.50;;;24.10;38.20;;;;;;5011351;28;20417;-50
2020/12/17 10:09:37;;;;;;;0.68;0.60;;;24.10;38.20;;;;;;5011396;28;20037;-53
2020/12/17 10:12:04;;;;;;;1.42;0.82;;;24.20;38.20;;;;;;5018193;28;20039;-57
2020/12/17 10:14:30;;;;;;;2.42;0.90;;;24.30;38.20;;;;;;5013891;28;20046;-52
2020/12/17 10:17:01;;;;;;;3.55;1.70;;;24.40;38.20;;;;;;5012307;28;20030;-51
2020/12/17 10:19:29;;;;;;;7.55;3.42;;;24.40;38.60;;;;;;4981296;28;20036;-54
2020/12/17 10:21:56;;;;;;;9.02;3.60;;;24.60;39.20;;;;;;5002600;28;20093;-53
2020/12/17 10:24:22;;;;;;;16.17;5.25;;;24.60;39.90;;;;;;4997770;28;20502;-55
2020/12/17 10:26:49;;;;;;;13.52;5.70;;;24.70;40.50;;;;;;5006365;28;20030;-56
2020/12/17 10:29:15;;;;;;;17.13;5.63;;;24.80;40.80;;;;;;4994787;28;20030;-54
2020/12/17 10:31:42;;;;;;;8.82;4.28;;;25.00;40.70;;;;;;4996559;28;20034;-50
2020/12/17 10:34:08;;;;;;;8.95;3.92;;;25.20;40.30;;;;;;5000786;28;20074;-52
2020/12/17 10:36:39;;;;;;;7.15;3.45;;;25.40;39.90;;;;;;5004274;28;20037;-49
2020/12/17 10:39:07;;;;;;;8.02;3.63;;;25.60;39.40;;;;;;5013391;28;20022;-45
2020/12/17 10:41:34;;;;;;;5.78;2.85;;;25.80;39.00;;;;;;5000118;28;20446;-56
2020/12/17 10:44:01;;;;;;;6.88;2.85;;;25.90;38.70;;;;;;4994792;28;20061;-50
2020/12/17 10:46:27;;;;;;;6.88;2.78;;;26.00;38.60;;;;;;4995557;28;20517;-54
2020/12/17 10:48:54;;;;;;;5.63;2.60;;;26.00;38.50;;;;;;5012815;28;20033;-50
2020/12/17 10:51:20;;;;;;;3.47;1.83;;;26.00;38.40;;;;;;5013229;28;20018;-54
2020/12/17 10:53:47;;;;;;;6.18;2.10;;;26.00;38.10;;;;;;4998826;28;20049;-56
2020/12/17 10:56:14;;;;;;;4.05;1.73;;;26.00;37.90;;;;;;5005781;28;20072;-52
2020/12/17 10:58:41;;;;;;;3.53;1.60;;;25.90;37.70;;;;;;5017137;28;20454;-50
2020/12/17 11:01:07;;;;;;;3.83;1.58;;;25.90;37.70;;;;;;5017450;28;20023;-53
2020/12/17 11:03:34;;;;;;;2.67;1.52;;;25.90;37.60;;;;;;5016144;28;20074;-56
2020/12/17 11:06:01;;;;;;;3.25;1.50;;;25.90;37.60;;;;;;5010013;28;20144;-58
2020/12/17 11:08:28;;;;;;;2.72;1.40;;;25.80;37.50;;;;;;5017742;28;20096;-53
2020/12/17 11:10:55;;;;;;;3.53;1.15;;;25.80;37.50;;;;;;5017629;28;20029;-45
2020/12/17 11:13:22;;;;;;;3.58;1.75;;;25.80;37.50;;;;;;5007333;28;20121;-54
2020/12/17 11:15:49;;;;;;;2.35;1.23;;;25.80;37.50;;;;;;4998376;28;20077;-54
2020/12/17 11:18:16;;;;;;;5.35;1.48;;;25.70;37.30;;;;;;5014670;28;20345;-53
2020/12/17 11:20:43;;;;;;;3.22;1.50;;;25.70;37.20;;;;;;5004350;28;20034;-52
2020/12/17 11:23:11;;;;;;;2.47;1.17;;;25.70;37.20;;;;;;4994458;28;20826;-54
2020/12/17 11:25:39;;;;;;;2.80;1.20;;;25.70;37.20;;;;;;5011157;28;20025;-54
2020/12/17 11:28:06;;;;;;;2.50;1.60;;;25.70;37.30;;;;;;5006537;28;20026;-55
2020/12/17 11:30:34;;;;;;;1.85;1.02;;;25.70;37.20;;;;;;5005371;28;20057;-50
2020/12/17 11:33:02;;;;;;;3.33;1.27;;;25.70;37.10;;;;;;5000960;28;20050;-52
2020/12/17 11:35:28;;;;;;;2.00;1.10;;;25.70;37.00;;;;;;5007768;28;20446;-53
2020/12/17 11:37:55;;;;;;;3.03;2.00;;;25.70;36.80;;;;;;5012103;28;20418;-50
2020/12/17 11:40:22;;;;;;;2.17;1.30;;;25.70;36.80;;;;;;5007918;28;20389;-53
2020/12/17 11:42:55;;;;;;;2.30;1.25;;;25.60;36.60;;;;;;5004608;28;20045;-53
2020/12/17 11:45:25;;;;;;;2.72;1.55;;;25.60;36.50;;;;;;5008266;28;20045;-49
2020/12/17 11:47:52;;;;;;;2.45;1.02;;;25.60;36.50;;;;;;5008698;28;20068;-50
2020/12/17 11:50:19;;;;;;;2.88;1.30;;;25.60;36.50;;;;;;5009525;28;20109;-54
2020/12/17 11:52:45;;;;;;;3.00;1.48;;;25.60;36.40;;;;;;4991343;28;20785;-55
2020/12/17 11:55:12;;;;;;;2.55;1.27;;;25.60;36.40;;;;;;5005184;28;20773;-51
2020/12/17 11:57:39;;;;;;;2.40;1.13;;;25.60;36.50;;;;;;5004281;28;20026;-54
2020/12/17 12:00:07;;;;;;;2.28;1.40;;;25.60;36.50;;;;;;4966955;28;20026;-54
2020/12/17 12:02:35;;;;;;;4.38;1.02;;;25.60;36.60;;;;;;5008246;28;20057;-52
2020/12/17 12:05:05;;;;;;;4.13;1.50;;;25.50;36.50;;;;;;5000205;28;20038;-55
2020/12/17 12:07:33;;;;;;;1.90;1.35;;;25.60;36.70;;;;;;5006477;28;20034;-51
2020/12/17 12:10:02;;;;;;;2.88;1.40;;;25.50;36.60;;;;;;5014818;28;20022;-49
2020/12/17 12:12:30;;;;;;;4.50;1.00;;;25.50;36.60;;;;;;5010519;28;20022;-52
2020/12/17 12:14:57;;;;;;;3.00;1.20;;;25.50;36.60;;;;;;5012486;28;20032;-54
2020/12/17 12:17:23;;;;;;;2.83;1.02;;;25.50;36.60;;;;;;5009654;28;20454;-54
2020/12/17 12:19:50;;;;;;;1.55;0.93;;;25.40;36.60;;;;;;5009211;28;20194;-56
2020/12/17 12:22:17;;;;;;;2.17;1.00;;;25.40;36.60;;;;;;5014152;28;20441;-52
2020/12/17 12:24:43;;;;;;;13.80;1.33;;;25.40;36.60;;;;;;5010663;28;20045;-52
2020/12/17 12:27:12;;;;;;;3.28;1.00;;;25.40;36.50;;;;;;5020412;28;20061;-64
2020/12/17 12:29:39;;;;;;;2.05;0.80;;;25.40;36.50;;;;;;5032088;28;20429;-52
2020/12/17 12:32:06;;;;;;;1.20;0.60;;;25.30;36.00;;;;;;5011014;28;20426;-50
2020/12/17 12:34:33;;;;;;;1.50;0.90;;;25.20;35.70;;;;;;5013509;28;20034;-52
2020/12/17 12:37:00;;;;;;;2.53;0.85;;;25.10;36.00;;;;;;5014721;28;20017;-54
2020/12/17 12:39:26;;;;;;;2.33;1.02;;;25.00;36.20;;;;;;5015061;28;20034;-51
2020/12/17 12:41:53;;;;;;;2.38;0.80;;;25.00;36.40;;;;;;5013553;28;20177;-50
2020/12/17 12:44:20;;;;;;;1.42;0.80;;;25.00;36.50;;;;;;5014778;28;20093;-53
2020/12/17 12:46:48;;;;;;;2.45;1.10;;;25.00;36.50;;;;;;5017347;28;20331;-52
2020/12/17 12:49:15;;;;;;;1.92;0.90;;;25.00;36.50;;;;;;5015742;28;20049;-51
2020/12/17 12:51:42;;;;;;;2.47;1.20;;;25.00;36.50;;;;;;5008448;28;20038;-55
2020/12/17 12:54:09;;;;;;;2.20;0.80;;;25.00;36.50;;;;;;5001158;28;20069;-54